sensor_id;sensor_type;location;lat;lon;timestamp;P1;durP1;ratioP1;P2;durP2;ratioP2
39066;SDS011;24821;51.988;6.020;2023-07-22T00:02:05;17.15;;;16.15;;
39066;SDS011;24821;51.988;6.020;2023-07-22T00:04:30;18.02;;;16.92;;
39066;SDS011;24821;51.988;6.020;2023-07-22T00:06:56;17.33;;;16.33;;
39066;SDS011;24821;51.988;6.020;2023-07-22T00:09:21;17.67;;;16.63;;
39066;SDS011;24821;51.988;6.020;2023-07-22T00:11:49;17.75;;;16.85;;
39066;SDS011;24821;51.988;6.020;2023-07-22T00:14:14;18.20;;;17.20;;
39066;SDS011;24821;51.988;6.020;2023-07-22T00:16:40;17.35;;;16.45;;
39066;SDS011;24821;51.988;6.020;2023-07-22T00:19:06;17.98;;;16.63;;
39066;SDS011;24821;51.988;6.020;2023-07-22T00:21:32;17.55;;;16.67;;
39066;SDS011;24821;51.988;6.020;2023-07-22T00:23:59;18.92;;;17.95;;
39066;SDS011;24821;51.988;6.020;2023-07-22T00:26:25;17.65;;;16.65;;
39066;SDS011;24821;51.988;6.020;2023-07-22T00:28:52;19.13;;;17.95;;
39066;SDS011;24821;51.988;6.020;2023-07-22T00:31:17;18.05;;;16.95;;
39066;SDS011;24821;51.988;6.020;2023-07-22T00:33:43;18.50;;;17.30;;
39066;SDS011;24821;51.988;6.020;2023-07-22T00:36:08;19.77;;;18.67;;
39066;SDS011;24821;51.988;6.020;2023-07-22T00:38:34;20.00;;;19.05;;
39066;SDS011;24821;51.988;6.020;2023-07-22T00:40:59;19.20;;;18.25;;
39066;SDS011;24821;51.988;6.020;2023-07-22T00:43:25;20.20;;;19.10;;
39066;SDS011;24821;51.988;6.020;2023-07-22T00:45:51;19.13;;;18.17;;
39066;SDS011;24821;51.988;6.020;2023-07-22T00:48:17;21.02;;;19.85;;
39066;SDS011;24821;51.988;6.020;2023-07-22T00:50:44;20.20;;;19.20;;
39066;SDS011;24821;51.988;6.020;2023-07-22T00:53:09;20.75;;;19.75;;
39066;SDS011;24821;51.988;6.020;2023-07-22T00:55:35;21.15;;;20.05;;
39066;SDS011;24821;51.988;6.020;2023-07-22T00:58:04;20.83;;;19.73;;
39066;SDS011;24821;51.988;6.020;2023-07-22T01:00:30;22.88;;;21.60;;
39066;SDS011;24821;51.988;6.020;2023-07-22T01:02:56;22.70;;;21.10;;
39066;SDS011;24821;51.988;6.020;2023-07-22T01:05:23;22.02;;;20.63;;
39066;SDS011;24821;51.988;6.020;2023-07-22T01:07:50;22.85;;;21.65;;
39066;SDS011;24821;51.988;6.020;2023-07-22T01:10:16;23.88;;;22.55;;
39066;SDS011;24821;51.988;6.020;2023-07-22T01:12:43;23.08;;;21.77;;
39066;SDS011;24821;51.988;6.020;2023-07-22T01:15:08;21.92;;;20.73;;
39066;SDS011;24821;51.988;6.020;2023-07-22T01:17:35;22.73;;;21.30;;
39066;SDS011;24821;51.988;6.020;2023-07-22T01:20:02;22.88;;;21.42;;
39066;SDS011;24821;51.988;6.020;2023-07-22T01:22:29;22.58;;;21.27;;
39066;SDS011;24821;51.988;6.020;2023-07-22T01:24:54;22.50;;;21.30;;
39066;SDS011;24821;51.988;6.020;2023-07-22T01:27:21;23.85;;;22.45;;
39066;SDS011;24821;51.988;6.020;2023-07-22T01:29:50;24.70;;;23.17;;
39066;SDS011;24821;51.988;6.020;2023-07-22T01:32:16;22.83;;;21.52;;
39066;SDS011;24821;51.988;6.020;2023-07-22T01:34:42;25.20;;;23.70;;
39066;SDS011;24821;51.988;6.020;2023-07-22T01:37:08;25.38;;;23.50;;
39066;SDS011;24821;51.988;6.020;2023-07-22T01:39:34;23.42;;;22.23;;
39066;SDS011;24821;51.988;6.020;2023-07-22T01:42:00;23.50;;;22.20;;
39066;SDS011;24821;51.988;6.020;2023-07-22T01:44:26;24.77;;;23.45;;
39066;SDS011;24821;51.988;6.020;2023-07-22T01:46:52;23.98;;;22.58;;
39066;SDS011;24821;51.988;6.020;2023-07-22T01:49:17;22.63;;;21.55;;
39066;SDS011;24821;51.988;6.020;2023-07-22T01:51:43;24.00;;;22.73;;
39066;SDS011;24821;51.988;6.020;2023-07-22T01:54:10;24.83;;;23.23;;
39066;SDS011;24821;51.988;6.020;2023-07-22T01:56:36;24.65;;;23.10;;
39066;SDS011;24821;51.988;6.020;2023-07-22T01:59:02;25.13;;;23.65;;
39066;SDS011;24821;51.988;6.020;2023-07-22T02:01:27;24.90;;;23.27;;
39066;SDS011;24821;51.988;6.020;2023-07-22T02:03:54;24.60;;;23.05;;
39066;SDS011;24821;51.988;6.020;2023-07-22T02:06:20;24.98;;;23.38;;
39066;SDS011;24821;51.988;6.020;2023-07-22T02:08:45;25.30;;;23.90;;
39066;SDS011;24821;51.988;6.020;2023-07-22T02:11:11;23.15;;;21.67;;
39066;SDS011;24821;51.988;6.020;2023-07-22T02:13:37;23.50;;;22.02;;
39066;SDS011;24821;51.988;6.020;2023-07-22T02:16:03;23.83;;;22.55;;
39066;SDS011;24821;51.988;6.020;2023-07-22T02:18:29;24.23;;;22.77;;
39066;SDS011;24821;51.988;6.020;2023-07-22T02:20:55;25.55;;;24.05;;
39066;SDS011;24821;51.988;6.020;2023-07-22T02:23:21;25.80;;;23.70;;
39066;SDS011;24821;51.988;6.020;2023-07-22T02:25:48;25.08;;;23.27;;
39066;SDS011;24821;51.988;6.020;2023-07-22T02:28:14;25.83;;;24.40;;
39066;SDS011;24821;51.988;6.020;2023-07-22T02:30:40;23.92;;;22.48;;
39066;SDS011;24821;51.988;6.020;2023-07-22T02:33:06;24.33;;;22.98;;
39066;SDS011;24821;51.988;6.020;2023-07-22T02:35:32;23.38;;;21.98;;
39066;SDS011;24821;51.988;6.020;2023-07-22T02:37:58;25.23;;;23.50;;
39066;SDS011;24821;51.988;6.020;2023-07-22T02:40:23;23.30;;;21.83;;
39066;SDS011;24821;51.988;6.020;2023-07-22T02:42:49;24.02;;;22.73;;
39066;SDS011;24821;51.988;6.020;2023-07-22T02:45:15;25.27;;;23.83;;
39066;SDS011;24821;51.988;6.020;2023-07-22T02:47:40;25.92;;;24.30;;
39066;SDS011;24821;51.988;6.020;2023-07-22T02:50:06;25.52;;;23.77;;
39066;SDS011;24821;51.988;6.020;2023-07-22T02:52:32;24.25;;;22.58;;
39066;SDS011;24821;51.988;6.020;2023-07-22T02:57:37;25.15;;;23.65;;
39066;SDS011;24821;51.988;6.020;2023-07-22T03:00:04;25.45;;;24.00;;
39066;SDS011;24821;51.988;6.020;2023-07-22T03:02:34;27.23;;;25.55;;
39066;SDS011;24821;51.988;6.020;2023-07-22T03:05:00;27.60;;;26.17;;
39066;SDS011;24821;51.988;6.020;2023-07-22T03:07:25;27.63;;;25.92;;
39066;SDS011;24821;51.988;6.020;2023-07-22T03:09:52;28.38;;;26.85;;
39066;SDS011;24821;51.988;6.020;2023-07-22T03:12:18;27.08;;;25.30;;
39066;SDS011;24821;51.988;6.020;2023-07-22T03:14:43;27.75;;;26.15;;
39066;SDS011;24821;51.988;6.020;2023-07-22T03:17:09;29.50;;;27.83;;
39066;SDS011;24821;51.988;6.020;2023-07-22T03:19:34;29.05;;;27.40;;
39066;SDS011;24821;51.988;6.020;2023-07-22T03:22:00;26.38;;;24.98;;
39066;SDS011;24821;51.988;6.020;2023-07-22T03:24:27;27.00;;;25.67;;
39066;SDS011;24821;51.988;6.020;2023-07-22T03:26:53;27.75;;;26.08;;
39066;SDS011;24821;51.988;6.020;2023-07-22T03:29:18;28.73;;;26.80;;
39066;SDS011;24821;51.988;6.020;2023-07-22T03:31:44;28.85;;;26.95;;
39066;SDS011;24821;51.988;6.020;2023-07-22T03:34:10;26.83;;;25.23;;
39066;SDS011;24821;51.988;6.020;2023-07-22T03:36:35;27.02;;;25.50;;
39066;SDS011;24821;51.988;6.020;2023-07-22T03:39:01;27.17;;;25.75;;
39066;SDS011;24821;51.988;6.020;2023-07-22T03:41:27;26.02;;;24.63;;
39066;SDS011;24821;51.988;6.020;2023-07-22T03:43:53;29.55;;;27.90;;
39066;SDS011;24821;51.988;6.020;2023-07-22T03:46:18;28.67;;;27.00;;
39066;SDS011;24821;51.988;6.020;2023-07-22T03:48:44;28.95;;;25.88;;
39066;SDS011;24821;51.988;6.020;2023-07-22T03:51:09;30.58;;;28.67;;
39066;SDS011;24821;51.988;6.020;2023-07-22T03:53:35;29.63;;;27.83;;
39066;SDS011;24821;51.988;6.020;2023-07-22T03:56:01;29.50;;;27.70;;
39066;SDS011;24821;51.988;6.020;2023-07-22T03:58:26;29.02;;;27.30;;
39066;SDS011;24821;51.988;6.020;2023-07-22T04:00:52;28.27;;;26.42;;
39066;SDS011;24821;51.988;6.020;2023-07-22T04:03:17;28.02;;;26.52;;
39066;SDS011;24821;51.988;6.020;2023-07-22T04:05:43;32.28;;;30.17;;
39066;SDS011;24821;51.988;6.020;2023-07-22T04:08:08;29.42;;;27.55;;
39066;SDS011;24821;51.988;6.020;2023-07-22T04:10:34;30.52;;;28.42;;
39066;SDS011;24821;51.988;6.020;2023-07-22T04:12:59;29.40;;;27.75;;
39066;SDS011;24821;51.988;6.020;2023-07-22T04:15:25;29.42;;;27.92;;
39066;SDS011;24821;51.988;6.020;2023-07-22T04:17:50;30.88;;;28.77;;
39066;SDS011;24821;51.988;6.020;2023-07-22T04:20:16;30.55;;;28.75;;
39066;SDS011;24821;51.988;6.020;2023-07-22T04:22:43;29.75;;;27.85;;
39066;SDS011;24821;51.988;6.020;2023-07-22T04:25:08;31.23;;;29.58;;
39066;SDS011;24821;51.988;6.020;2023-07-22T04:27:34;29.42;;;27.52;;
39066;SDS011;24821;51.988;6.020;2023-07-22T04:30:00;30.73;;;28.70;;
39066;SDS011;24821;51.988;6.020;2023-07-22T04:32:25;30.98;;;29.27;;
39066;SDS011;24821;51.988;6.020;2023-07-22T04:34:51;31.05;;;29.13;;
39066;SDS011;24821;51.988;6.020;2023-07-22T04:37:16;32.03;;;30.00;;
39066;SDS011;24821;51.988;6.020;2023-07-22T04:39:42;30.00;;;28.30;;
39066;SDS011;24821;51.988;6.020;2023-07-22T04:42:11;32.05;;;30.05;;
39066;SDS011;24821;51.988;6.020;2023-07-22T04:44:36;31.40;;;29.30;;
39066;SDS011;24821;51.988;6.020;2023-07-22T04:47:02;33.35;;;31.45;;
39066;SDS011;24821;51.988;6.020;2023-07-22T04:49:28;34.08;;;31.60;;
39066;SDS011;24821;51.988;6.020;2023-07-22T04:51:53;33.65;;;31.15;;
39066;SDS011;24821;51.988;6.020;2023-07-22T04:54:19;32.20;;;30.33;;
39066;SDS011;24821;51.988;6.020;2023-07-22T04:56:45;32.75;;;30.77;;
39066;SDS011;24821;51.988;6.020;2023-07-22T04:59:10;33.13;;;31.02;;
39066;SDS011;24821;51.988;6.020;2023-07-22T05:01:37;36.88;;;33.63;;
39066;SDS011;24821;51.988;6.020;2023-07-22T05:04:02;34.38;;;31.60;;
39066;SDS011;24821;51.988;6.020;2023-07-22T05:06:29;32.00;;;29.80;;
39066;SDS011;24821;51.988;6.020;2023-07-22T05:08:55;31.27;;;29.27;;
39066;SDS011;24821;51.988;6.020;2023-07-22T05:11:21;33.55;;;31.17;;
39066;SDS011;24821;51.988;6.020;2023-07-22T05:13:48;34.38;;;32.08;;
39066;SDS011;24821;51.988;6.020;2023-07-22T05:16:14;32.90;;;30.88;;
39066;SDS011;24821;51.988;6.020;2023-07-22T05:18:39;36.65;;;34.05;;
39066;SDS011;24821;51.988;6.020;2023-07-22T05:21:05;35.50;;;32.83;;
39066;SDS011;24821;51.988;6.020;2023-07-22T05:23:31;34.90;;;32.78;;
39066;SDS011;24821;51.988;6.020;2023-07-22T05:25:57;34.30;;;32.10;;
39066;SDS011;24821;51.988;6.020;2023-07-22T05:28:22;33.85;;;31.50;;
39066;SDS011;24821;51.988;6.020;2023-07-22T05:30:48;35.30;;;32.65;;
39066;SDS011;24821;51.988;6.020;2023-07-22T05:33:13;34.20;;;31.75;;
39066;SDS011;24821;51.988;6.020;2023-07-22T05:35:39;36.92;;;34.45;;
39066;SDS011;24821;51.988;6.020;2023-07-22T05:38:05;34.53;;;32.20;;
39066;SDS011;24821;51.988;6.020;2023-07-22T05:40:31;37.20;;;34.10;;
39066;SDS011;24821;51.988;6.020;2023-07-22T05:42:57;33.38;;;30.98;;
39066;SDS011;24821;51.988;6.020;2023-07-22T05:45:22;34.03;;;31.38;;
39066;SDS011;24821;51.988;6.020;2023-07-22T05:47:48;35.45;;;32.95;;
39066;SDS011;24821;51.988;6.020;2023-07-22T05:50:13;36.60;;;33.60;;
39066;SDS011;24821;51.988;6.020;2023-07-22T05:52:39;35.80;;;33.20;;
39066;SDS011;24821;51.988;6.020;2023-07-22T05:55:05;36.78;;;33.78;;
39066;SDS011;24821;51.988;6.020;2023-07-22T05:57:30;34.78;;;32.08;;
39066;SDS011;24821;51.988;6.020;2023-07-22T05:59:56;34.47;;;31.48;;
39066;SDS011;24821;51.988;6.020;2023-07-22T06:02:22;34.10;;;31.55;;
39066;SDS011;24821;51.988;6.020;2023-07-22T06:04:47;36.00;;;32.55;;
39066;SDS011;24821;51.988;6.020;2023-07-22T06:07:13;32.28;;;29.80;;
39066;SDS011;24821;51.988;6.020;2023-07-22T06:09:38;31.83;;;29.30;;
39066;SDS011;24821;51.988;6.020;2023-07-22T06:12:04;31.42;;;29.02;;
39066;SDS011;24821;51.988;6.020;2023-07-22T06:14:30;32.70;;;29.48;;
39066;SDS011;24821;51.988;6.020;2023-07-22T06:16:56;34.97;;;31.50;;
39066;SDS011;24821;51.988;6.020;2023-07-22T06:19:21;30.52;;;28.00;;
39066;SDS011;24821;51.988;6.020;2023-07-22T06:21:48;31.38;;;28.92;;
39066;SDS011;24821;51.988;6.020;2023-07-22T06:24:14;31.63;;;29.13;;
39066;SDS011;24821;51.988;6.020;2023-07-22T06:26:40;31.88;;;29.05;;
39066;SDS011;24821;51.988;6.020;2023-07-22T06:29:05;30.10;;;27.55;;
39066;SDS011;24821;51.988;6.020;2023-07-22T06:31:31;30.92;;;28.13;;
39066;SDS011;24821;51.988;6.020;2023-07-22T06:33:57;29.70;;;27.00;;
39066;SDS011;24821;51.988;6.020;2023-07-22T06:36:24;30.13;;;27.10;;
39066;SDS011;24821;51.988;6.020;2023-07-22T06:38:50;28.58;;;26.08;;
39066;SDS011;24821;51.988;6.020;2023-07-22T06:41:16;28.30;;;25.85;;
39066;SDS011;24821;51.988;6.020;2023-07-22T06:43:42;26.95;;;25.05;;
39066;SDS011;24821;51.988;6.020;2023-07-22T06:46:08;28.65;;;26.45;;
39066;SDS011;24821;51.988;6.020;2023-07-22T06:48:34;27.70;;;25.38;;
39066;SDS011;24821;51.988;6.020;2023-07-22T06:50:59;27.65;;;25.23;;
39066;SDS011;24821;51.988;6.020;2023-07-22T06:53:25;26.17;;;23.90;;
39066;SDS011;24821;51.988;6.020;2023-07-22T06:55:51;25.95;;;23.85;;
39066;SDS011;24821;51.988;6.020;2023-07-22T06:58:17;26.13;;;23.85;;
39066;SDS011;24821;51.988;6.020;2023-07-22T07:00:44;25.00;;;22.75;;
39066;SDS011;24821;51.988;6.020;2023-07-22T07:03:09;27.80;;;24.90;;
39066;SDS011;24821;51.988;6.020;2023-07-22T07:05:35;23.33;;;21.33;;
39066;SDS011;24821;51.988;6.020;2023-07-22T07:08:01;24.27;;;22.27;;
39066;SDS011;24821;51.988;6.020;2023-07-22T07:10:27;23.77;;;21.77;;
39066;SDS011;24821;51.988;6.020;2023-07-22T07:12:52;21.95;;;20.00;;
39066;SDS011;24821;51.988;6.020;2023-07-22T07:15:18;22.25;;;20.52;;
39066;SDS011;24821;51.988;6.020;2023-07-22T07:17:43;24.38;;;22.10;;
39066;SDS011;24821;51.988;6.020;2023-07-22T07:20:09;24.23;;;21.67;;
39066;SDS011;24821;51.988;6.020;2023-07-22T07:22:35;22.33;;;20.23;;
39066;SDS011;24821;51.988;6.020;2023-07-22T07:25:01;21.95;;;20.15;;
39066;SDS011;24821;51.988;6.020;2023-07-22T07:27:27;23.23;;;21.40;;
39066;SDS011;24821;51.988;6.020;2023-07-22T07:29:53;22.42;;;20.70;;
39066;SDS011;24821;51.988;6.020;2023-07-22T07:32:18;22.05;;;19.88;;
39066;SDS011;24821;51.988;6.020;2023-07-22T07:34:44;21.35;;;19.45;;
39066;SDS011;24821;51.988;6.020;2023-07-22T07:37:09;20.75;;;19.05;;
39066;SDS011;24821;51.988;6.020;2023-07-22T07:39:35;23.55;;;21.38;;
39066;SDS011;24821;51.988;6.020;2023-07-22T07:42:00;21.23;;;19.73;;
39066;SDS011;24821;51.988;6.020;2023-07-22T07:44:26;21.92;;;19.92;;
39066;SDS011;24821;51.988;6.020;2023-07-22T07:46:51;23.17;;;21.08;;
39066;SDS011;24821;51.988;6.020;2023-07-22T07:49:17;20.10;;;18.55;;
39066;SDS011;24821;51.988;6.020;2023-07-22T07:51:43;20.13;;;18.40;;
39066;SDS011;24821;51.988;6.020;2023-07-22T07:54:08;19.80;;;18.15;;
39066;SDS011;24821;51.988;6.020;2023-07-22T07:56:34;24.10;;;22.30;;
39066;SDS011;24821;51.988;6.020;2023-07-22T07:58:59;20.02;;;18.40;;
39066;SDS011;24821;51.988;6.020;2023-07-22T08:01:27;19.23;;;17.80;;
39066;SDS011;24821;51.988;6.020;2023-07-22T08:03:53;19.17;;;17.83;;
39066;SDS011;24821;51.988;6.020;2023-07-22T08:06:19;19.42;;;18.02;;
39066;SDS011;24821;51.988;6.020;2023-07-22T08:08:44;18.02;;;16.63;;
39066;SDS011;24821;51.988;6.020;2023-07-22T08:11:11;19.35;;;17.58;;
39066;SDS011;24821;51.988;6.020;2023-07-22T08:13:41;19.63;;;18.10;;
39066;SDS011;24821;51.988;6.020;2023-07-22T08:16:09;19.13;;;17.38;;
39066;SDS011;24821;51.988;6.020;2023-07-22T08:18:36;19.77;;;18.33;;
39066;SDS011;24821;51.988;6.020;2023-07-22T08:21:02;19.67;;;17.98;;
39066;SDS011;24821;51.988;6.020;2023-07-22T08:23:29;18.75;;;17.27;;
39066;SDS011;24821;51.988;6.020;2023-07-22T08:25:55;19.88;;;18.52;;
39066;SDS011;24821;51.988;6.020;2023-07-22T08:28:20;20.27;;;18.63;;
39066;SDS011;24821;51.988;6.020;2023-07-22T08:30:49;20.70;;;19.20;;
39066;SDS011;24821;51.988;6.020;2023-07-22T08:33:15;21.38;;;19.88;;
39066;SDS011;24821;51.988;6.020;2023-07-22T08:35:42;21.88;;;20.35;;
39066;SDS011;24821;51.988;6.020;2023-07-22T08:38:08;20.92;;;19.33;;
39066;SDS011;24821;51.988;6.020;2023-07-22T08:40:34;20.58;;;19.27;;
39066;SDS011;24821;51.988;6.020;2023-07-22T08:43:01;20.23;;;18.73;;
39066;SDS011;24821;51.988;6.020;2023-07-22T08:45:29;19.27;;;18.15;;
39066;SDS011;24821;51.988;6.020;2023-07-22T08:48:05;20.58;;;19.27;;
39066;SDS011;24821;51.988;6.020;2023-07-22T08:50:43;20.55;;;19.10;;
39066;SDS011;24821;51.988;6.020;2023-07-22T08:53:12;20.38;;;18.83;;
39066;SDS011;24821;51.988;6.020;2023-07-22T08:55:38;20.75;;;19.58;;
39066;SDS011;24821;51.988;6.020;2023-07-22T08:58:05;20.20;;;18.88;;
39066;SDS011;24821;51.988;6.020;2023-07-22T09:00:34;21.05;;;19.63;;
39066;SDS011;24821;51.988;6.020;2023-07-22T09:03:00;21.30;;;19.75;;
39066;SDS011;24821;51.988;6.020;2023-07-22T09:05:26;20.90;;;19.40;;
39066;SDS011;24821;51.988;6.020;2023-07-22T09:07:52;21.38;;;19.92;;
39066;SDS011;24821;51.988;6.020;2023-07-22T09:10:18;22.25;;;20.80;;
39066;SDS011;24821;51.988;6.020;2023-07-22T09:12:45;20.55;;;19.08;;
39066;SDS011;24821;51.988;6.020;2023-07-22T09:15:12;21.88;;;20.23;;
39066;SDS011;24821;51.988;6.020;2023-07-22T09:17:38;19.10;;;17.60;;
39066;SDS011;24821;51.988;6.020;2023-07-22T09:20:05;20.48;;;19.27;;
39066;SDS011;24821;51.988;6.020;2023-07-22T09:22:33;20.23;;;18.85;;
39066;SDS011;24821;51.988;6.020;2023-07-22T09:28:00;19.67;;;18.40;;
39066;SDS011;24821;51.988;6.020;2023-07-22T09:30:30;18.95;;;17.63;;
39066;SDS011;24821;51.988;6.020;2023-07-22T09:32:59;21.75;;;20.30;;
39066;SDS011;24821;51.988;6.020;2023-07-22T09:35:30;20.08;;;18.42;;
39066;SDS011;24821;51.988;6.020;2023-07-22T09:38:08;20.13;;;18.92;;
39066;SDS011;24821;51.988;6.020;2023-07-22T09:40:33;20.60;;;19.40;;
39066;SDS011;24821;51.988;6.020;2023-07-22T09:43:01;21.77;;;20.45;;
39066;SDS011;24821;51.988;6.020;2023-07-22T09:45:28;21.40;;;20.20;;
39066;SDS011;24821;51.988;6.020;2023-07-22T09:47:55;21.70;;;20.50;;
39066;SDS011;24821;51.988;6.020;2023-07-22T09:50:25;23.20;;;21.90;;
39066;SDS011;24821;51.988;6.020;2023-07-22T09:52:52;21.08;;;19.77;;
39066;SDS011;24821;51.988;6.020;2023-07-22T09:55:22;22.95;;;20.95;;
39066;SDS011;24821;51.988;6.020;2023-07-22T09:57:51;20.48;;;19.38;;
39066;SDS011;24821;51.988;6.020;2023-07-22T10:00:19;19.02;;;18.02;;
39066;SDS011;24821;51.988;6.020;2023-07-22T10:02:46;20.77;;;19.67;;
39066;SDS011;24821;51.988;6.020;2023-07-22T10:05:18;22.58;;;21.05;;
39066;SDS011;24821;51.988;6.020;2023-07-22T10:07:51;22.98;;;21.67;;
39066;SDS011;24821;51.988;6.020;2023-07-22T10:10:19;22.98;;;21.58;;
39066;SDS011;24821;51.988;6.020;2023-07-22T10:12:48;21.63;;;20.55;;
39066;SDS011;24821;51.988;6.020;2023-07-22T10:15:14;22.48;;;21.27;;
39066;SDS011;24821;51.988;6.020;2023-07-22T10:17:42;21.40;;;20.30;;
39066;SDS011;24821;51.988;6.020;2023-07-22T10:20:09;20.50;;;19.50;;
39066;SDS011;24821;51.988;6.020;2023-07-22T10:22:40;22.35;;;21.30;;
39066;SDS011;24821;51.988;6.020;2023-07-22T10:25:10;25.98;;;24.35;;
39066;SDS011;24821;51.988;6.020;2023-07-22T10:27:37;26.38;;;25.17;;
39066;SDS011;24821;51.988;6.020;2023-07-22T10:30:05;23.77;;;22.60;;
39066;SDS011;24821;51.988;6.020;2023-07-22T10:32:35;24.75;;;23.35;;
39066;SDS011;24821;51.988;6.020;2023-07-22T10:35:02;22.42;;;21.33;;
39066;SDS011;24821;51.988;6.020;2023-07-22T10:37:29;22.83;;;21.58;;
39066;SDS011;24821;51.988;6.020;2023-07-22T10:39:58;24.02;;;22.83;;
39066;SDS011;24821;51.988;6.020;2023-07-22T10:42:25;21.75;;;20.65;;
39066;SDS011;24821;51.988;6.020;2023-07-22T10:44:51;23.58;;;22.25;;
39066;SDS011;24821;51.988;6.020;2023-07-22T10:47:34;22.73;;;21.50;;
39066;SDS011;24821;51.988;6.020;2023-07-22T10:50:07;25.05;;;23.75;;
39066;SDS011;24821;51.988;6.020;2023-07-22T10:52:41;25.08;;;23.77;;
39066;SDS011;24821;51.988;6.020;2023-07-22T10:55:15;24.42;;;23.33;;
39066;SDS011;24821;51.988;6.020;2023-07-22T10:57:49;26.50;;;25.20;;
39066;SDS011;24821;51.988;6.020;2023-07-22T11:00:17;24.50;;;23.25;;
39066;SDS011;24821;51.988;6.020;2023-07-22T11:02:45;24.42;;;22.88;;
39066;SDS011;24821;51.988;6.020;2023-07-22T11:05:48;25.00;;;23.40;;
39066;SDS011;24821;51.988;6.020;2023-07-22T11:11:04;26.88;;;25.48;;
39066;SDS011;24821;51.988;6.020;2023-07-22T11:13:30;27.88;;;26.25;;
39066;SDS011;24821;51.988;6.020;2023-07-22T11:16:04;28.90;;;27.23;;
39066;SDS011;24821;51.988;6.020;2023-07-22T11:18:40;28.10;;;26.70;;
39066;SDS011;24821;51.988;6.020;2023-07-22T11:21:07;25.48;;;24.30;;
39066;SDS011;24821;51.988;6.020;2023-07-22T11:23:34;27.05;;;25.52;;
39066;SDS011;24821;51.988;6.020;2023-07-22T11:26:00;27.23;;;25.77;;
39066;SDS011;24821;51.988;6.020;2023-07-22T11:28:27;26.42;;;25.02;;
39066;SDS011;24821;51.988;6.020;2023-07-22T11:30:53;24.35;;;23.08;;
39066;SDS011;24821;51.988;6.020;2023-07-22T11:33:19;27.55;;;26.08;;
39066;SDS011;24821;51.988;6.020;2023-07-22T11:35:44;25.30;;;23.88;;
39066;SDS011;24821;51.988;6.020;2023-07-22T11:38:13;24.67;;;23.52;;
39066;SDS011;24821;51.988;6.020;2023-07-22T11:40:39;27.98;;;26.38;;
39066;SDS011;24821;51.988;6.020;2023-07-22T11:43:04;24.38;;;23.17;;
39066;SDS011;24821;51.988;6.020;2023-07-22T11:45:30;24.42;;;23.33;;
39066;SDS011;24821;51.988;6.020;2023-07-22T11:47:56;25.70;;;24.50;;
39066;SDS011;24821;51.988;6.020;2023-07-22T11:50:34;25.40;;;24.05;;
39066;SDS011;24821;51.988;6.020;2023-07-22T11:52:59;23.27;;;22.17;;
39066;SDS011;24821;51.988;6.020;2023-07-22T11:55:25;22.55;;;21.35;;
39066;SDS011;24821;51.988;6.020;2023-07-22T11:57:54;23.48;;;22.20;;
39066;SDS011;24821;51.988;6.020;2023-07-22T12:00:20;20.38;;;19.48;;
39066;SDS011;24821;51.988;6.020;2023-07-22T12:02:46;23.70;;;22.20;;
39066;SDS011;24821;51.988;6.020;2023-07-22T12:05:12;22.75;;;21.45;;
39066;SDS011;24821;51.988;6.020;2023-07-22T12:07:45;23.10;;;21.80;;
39066;SDS011;24821;51.988;6.020;2023-07-22T12:10:11;21.17;;;20.17;;
39066;SDS011;24821;51.988;6.020;2023-07-22T12:12:38;23.88;;;22.23;;
39066;SDS011;24821;51.988;6.020;2023-07-22T12:20:22;18.45;;;17.65;;
39066;SDS011;24821;51.988;6.020;2023-07-22T12:22:53;19.85;;;18.98;;
39066;SDS011;24821;51.988;6.020;2023-07-22T12:25:20;19.17;;;18.10;;
39066;SDS011;24821;51.988;6.020;2023-07-22T12:27:45;19.55;;;18.42;;
39066;SDS011;24821;51.988;6.020;2023-07-22T12:30:11;17.52;;;16.73;;
39066;SDS011;24821;51.988;6.020;2023-07-22T12:32:37;18.83;;;17.83;;
39066;SDS011;24821;51.988;6.020;2023-07-22T12:35:04;17.98;;;17.08;;
39066;SDS011;24821;51.988;6.020;2023-07-22T12:37:30;18.02;;;17.23;;
39066;SDS011;24821;51.988;6.020;2023-07-22T12:39:56;20.02;;;18.90;;
39066;SDS011;24821;51.988;6.020;2023-07-22T12:42:22;20.88;;;19.98;;
39066;SDS011;24821;51.988;6.020;2023-07-22T12:44:48;23.65;;;21.92;;
39066;SDS011;24821;51.988;6.020;2023-07-22T12:47:13;24.13;;;23.02;;
39066;SDS011;24821;51.988;6.020;2023-07-22T12:49:39;24.00;;;22.67;;
39066;SDS011;24821;51.988;6.020;2023-07-22T12:52:05;24.50;;;23.38;;
39066;SDS011;24821;51.988;6.020;2023-07-22T12:54:34;22.50;;;21.38;;
39066;SDS011;24821;51.988;6.020;2023-07-22T12:57:00;21.88;;;20.77;;
39066;SDS011;24821;51.988;6.020;2023-07-22T12:59:26;23.08;;;22.00;;
39066;SDS011;24821;51.988;6.020;2023-07-22T13:01:52;22.73;;;21.63;;
39066;SDS011;24821;51.988;6.020;2023-07-22T13:04:18;20.85;;;19.85;;
39066;SDS011;24821;51.988;6.020;2023-07-22T13:06:44;17.48;;;16.73;;
39066;SDS011;24821;51.988;6.020;2023-07-22T13:09:10;19.30;;;18.40;;
39066;SDS011;24821;51.988;6.020;2023-07-22T13:11:35;19.48;;;18.60;;
39066;SDS011;24821;51.988;6.020;2023-07-22T13:14:01;19.20;;;18.30;;
39066;SDS011;24821;51.988;6.020;2023-07-22T13:16:27;20.38;;;19.38;;
39066;SDS011;24821;51.988;6.020;2023-07-22T13:18:53;20.15;;;19.15;;
39066;SDS011;24821;51.988;6.020;2023-07-22T13:21:18;19.38;;;18.17;;
39066;SDS011;24821;51.988;6.020;2023-07-22T13:23:44;18.00;;;17.20;;
39066;SDS011;24821;51.988;6.020;2023-07-22T13:26:09;19.20;;;18.17;;
39066;SDS011;24821;51.988;6.020;2023-07-22T13:28:35;18.77;;;17.63;;
39066;SDS011;24821;51.988;6.020;2023-07-22T13:31:01;20.90;;;19.67;;
39066;SDS011;24821;51.988;6.020;2023-07-22T13:33:26;22.95;;;21.60;;
39066;SDS011;24821;51.988;6.020;2023-07-22T13:35:52;21.63;;;20.33;;
39066;SDS011;24821;51.988;6.020;2023-07-22T13:38:18;22.65;;;20.85;;
39066;SDS011;24821;51.988;6.020;2023-07-22T13:40:43;22.55;;;21.15;;
39066;SDS011;24821;51.988;6.020;2023-07-22T13:43:09;20.25;;;19.10;;
39066;SDS011;24821;51.988;6.020;2023-07-22T13:45:35;18.17;;;17.42;;
39066;SDS011;24821;51.988;6.020;2023-07-22T13:48:00;19.10;;;18.20;;
39066;SDS011;24821;51.988;6.020;2023-07-22T13:50:26;18.58;;;17.77;;
39066;SDS011;24821;51.988;6.020;2023-07-22T13:52:52;19.70;;;18.42;;
39066;SDS011;24821;51.988;6.020;2023-07-22T13:55:17;20.42;;;19.52;;
39066;SDS011;24821;51.988;6.020;2023-07-22T13:57:43;20.52;;;19.42;;
39066;SDS011;24821;51.988;6.020;2023-07-22T14:00:09;23.30;;;22.20;;
39066;SDS011;24821;51.988;6.020;2023-07-22T14:02:35;21.27;;;20.38;;
39066;SDS011;24821;51.988;6.020;2023-07-22T14:05:02;21.35;;;20.42;;
39066;SDS011;24821;51.988;6.020;2023-07-22T14:07:28;20.25;;;19.10;;
39066;SDS011;24821;51.988;6.020;2023-07-22T14:09:54;21.83;;;20.33;;
39066;SDS011;24821;51.988;6.020;2023-07-22T14:12:19;19.42;;;18.50;;
39066;SDS011;24821;51.988;6.020;2023-07-22T14:14:45;21.35;;;20.25;;
39066;SDS011;24821;51.988;6.020;2023-07-22T14:17:11;20.30;;;19.25;;
39066;SDS011;24821;51.988;6.020;2023-07-22T14:19:37;21.08;;;20.10;;
39066;SDS011;24821;51.988;6.020;2023-07-22T14:22:02;19.63;;;18.67;;
39066;SDS011;24821;51.988;6.020;2023-07-22T14:24:28;20.40;;;19.40;;
39066;SDS011;24821;51.988;6.020;2023-07-22T14:26:54;19.73;;;18.77;;
39066;SDS011;24821;51.988;6.020;2023-07-22T14:29:20;19.15;;;18.35;;
39066;SDS011;24821;51.988;6.020;2023-07-22T14:31:46;20.13;;;19.13;;